sensor_id;sensor_type;location;lat;lon;timestamp;P1;durP1;ratioP1;P2;durP2;ratioP2
4961;SDS011;2496;52.468;13.342;2022-09-09T00:00:25;7.27;;;6.13;;
4961;SDS011;2496;52.468;13.342;2022-09-09T00:02:54;7.70;;;6.60;;
4961;SDS011;2496;52.468;13.342;2022-09-09T00:05:29;8.53;;;7.63;;
4961;SDS011;2496;52.468;13.342;2022-09-09T00:08:02;8.23;;;6.47;;
4961;SDS011;2496;52.468;13.342;2022-09-09T00:10:31;11.43;;;7.13;;
4961;SDS011;2496;52.468;13.342;2022-09-09T00:13:05;12.50;;;6.70;;
4961;SDS011;2496;52.468;13.342;2022-09-09T00:15:43;7.80;;;7.00;;
4961;SDS011;2496;52.468;13.342;2022-09-09T00:18:21;6.97;;;6.27;;
4961;SDS011;2496;52.468;13.342;2022-09-09T00:20:55;12.63;;;7.47;;
4961;SDS011;2496;52.468;13.342;2022-09-09T00:23:32;11.90;;;6.97;;
4961;SDS011;2496;52.468;13.342;2022-09-09T00:26:03;10.03;;;7.10;;
4961;SDS011;2496;52.468;13.342;2022-09-09T00:28:36;8.43;;;7.60;;
4961;SDS011;2496;52.468;13.342;2022-09-09T00:31:11;9.00;;;7.80;;
4961;SDS011;2496;52.468;13.342;2022-09-09T00:33:39;8.60;;;7.80;;
4961;SDS011;2496;52.468;13.342;2022-09-09T00:36:09;8.70;;;7.90;;
4961;SDS011;2496;52.468;13.342;2022-09-09T00:38:42;8.17;;;7.37;;
4961;SDS011;2496;52.468;13.342;2022-09-09T00:41:15;8.83;;;8.03;;
4961;SDS011;2496;52.468;13.342;2022-09-09T00:43:46;8.10;;;7.10;;
4961;SDS011;2496;52.468;13.342;2022-09-09T00:46:26;8.47;;;7.57;;
4961;SDS011;2496;52.468;13.342;2022-09-09T00:49:11;8.77;;;7.90;;
4961;SDS011;2496;52.468;13.342;2022-09-09T00:51:48;10.70;;;7.93;;
4961;SDS011;2496;52.468;13.342;2022-09-09T00:54:30;9.37;;;7.67;;
4961;SDS011;2496;52.468;13.342;2022-09-09T00:57:07;9.33;;;8.13;;
4961;SDS011;2496;52.468;13.342;2022-09-09T00:59:43;8.23;;;7.33;;
4961;SDS011;2496;52.468;13.342;2022-09-09T01:02:16;11.37;;;7.20;;
4961;SDS011;2496;52.468;13.342;2022-09-09T01:04:53;11.67;;;7.93;;
4961;SDS011;2496;52.468;13.342;2022-09-09T01:07:20;9.87;;;8.13;;
4961;SDS011;2496;52.468;13.342;2022-09-09T01:09:54;9.37;;;8.40;;
4961;SDS011;2496;52.468;13.342;2022-09-09T01:12:28;7.97;;;7.17;;
4961;SDS011;2496;52.468;13.342;2022-09-09T01:15:04;11.30;;;7.80;;
4961;SDS011;2496;52.468;13.342;2022-09-09T01:17:44;13.50;;;7.80;;
4961;SDS011;2496;52.468;13.342;2022-09-09T01:20:17;9.57;;;7.83;;
4961;SDS011;2496;52.468;13.342;2022-09-09T01:22:54;9.27;;;7.77;;
4961;SDS011;2496;52.468;13.342;2022-09-09T01:28:19;7.43;;;6.70;;
4961;SDS011;2496;52.468;13.342;2022-09-09T01:30:51;11.23;;;7.60;;
4961;SDS011;2496;52.468;13.342;2022-09-09T01:33:18;16.23;;;8.27;;
4961;SDS011;2496;52.468;13.342;2022-09-09T01:35:46;8.50;;;7.23;;
4961;SDS011;2496;52.468;13.342;2022-09-09T01:38:19;13.53;;;7.90;;
4961;SDS011;2496;52.468;13.342;2022-09-09T01:40:47;7.30;;;6.60;;
4961;SDS011;2496;52.468;13.342;2022-09-09T01:43:18;10.23;;;7.70;;
4961;SDS011;2496;52.468;13.342;2022-09-09T01:45:46;7.90;;;7.10;;
4961;SDS011;2496;52.468;13.342;2022-09-09T01:48:15;8.20;;;7.13;;
4961;SDS011;2496;52.468;13.342;2022-09-09T01:50:43;8.30;;;7.40;;
4961;SDS011;2496;52.468;13.342;2022-09-09T01:53:10;10.00;;;6.87;;
4961;SDS011;2496;52.468;13.342;2022-09-09T01:55:39;8.97;;;7.20;;
4961;SDS011;2496;52.468;13.342;2022-09-09T01:58:11;7.73;;;6.93;;
4961;SDS011;2496;52.468;13.342;2022-09-09T02:00:54;8.40;;;7.30;;
4961;SDS011;2496;52.468;13.342;2022-09-09T02:03:26;15.27;;;8.00;;
4961;SDS011;2496;52.468;13.342;2022-09-09T02:05:57;8.30;;;7.17;;
4961;SDS011;2496;52.468;13.342;2022-09-09T02:08:33;8.30;;;7.13;;
4961;SDS011;2496;52.468;13.342;2022-09-09T02:11:06;8.30;;;7.17;;
4961;SDS011;2496;52.468;13.342;2022-09-09T02:13:39;12.27;;;6.90;;
4961;SDS011;2496;52.468;13.342;2022-09-09T02:16:07;9.57;;;7.40;;
4961;SDS011;2496;52.468;13.342;2022-09-09T02:18:38;11.83;;;6.47;;
4961;SDS011;2496;52.468;13.342;2022-09-09T02:21:07;13.30;;;7.77;;
4961;SDS011;2496;52.468;13.342;2022-09-09T02:23:38;10.30;;;6.77;;
4961;SDS011;2496;52.468;13.342;2022-09-09T02:26:07;8.47;;;7.57;;
4961;SDS011;2496;52.468;13.342;2022-09-09T02:28:39;11.10;;;7.93;;
4961;SDS011;2496;52.468;13.342;2022-09-09T02:31:07;9.23;;;7.30;;
4961;SDS011;2496;52.468;13.342;2022-09-09T02:33:35;8.73;;;6.90;;
4961;SDS011;2496;52.468;13.342;2022-09-09T02:36:07;7.63;;;6.83;;
4961;SDS011;2496;52.468;13.342;2022-09-09T02:38:37;9.80;;;8.13;;
4961;SDS011;2496;52.468;13.342;2022-09-09T02:41:08;7.67;;;6.87;;
4961;SDS011;2496;52.468;13.342;2022-09-09T02:43:36;8.03;;;7.00;;
4961;SDS011;2496;52.468;13.342;2022-09-09T02:46:07;11.07;;;6.77;;
4961;SDS011;2496;52.468;13.342;2022-09-09T02:48:44;10.83;;;8.03;;
4961;SDS011;2496;52.468;13.342;2022-09-09T02:51:21;9.03;;;7.30;;
4961;SDS011;2496;52.468;13.342;2022-09-09T02:53:57;9.97;;;6.70;;
4961;SDS011;2496;52.468;13.342;2022-09-09T02:56:30;8.97;;;7.30;;
4961;SDS011;2496;52.468;13.342;2022-09-09T02:59:04;11.50;;;7.00;;
4961;SDS011;2496;52.468;13.342;2022-09-09T03:01:32;11.63;;;8.10;;
4961;SDS011;2496;52.468;13.342;2022-09-09T03:04:00;11.00;;;7.57;;
4961;SDS011;2496;52.468;13.342;2022-09-09T03:06:30;11.90;;;6.80;;
4961;SDS011;2496;52.468;13.342;2022-09-09T03:08:57;9.50;;;6.50;;
4961;SDS011;2496;52.468;13.342;2022-09-09T03:11:25;11.50;;;7.40;;
4961;SDS011;2496;52.468;13.342;2022-09-09T03:13:52;7.90;;;7.00;;
4961;SDS011;2496;52.468;13.342;2022-09-09T03:16:21;9.90;;;7.10;;
4961;SDS011;2496;52.468;13.342;2022-09-09T03:18:49;10.93;;;6.63;;
4961;SDS011;2496;52.468;13.342;2022-09-09T03:21:17;9.60;;;7.33;;
4961;SDS011;2496;52.468;13.342;2022-09-09T03:23:44;12.30;;;7.10;;
4961;SDS011;2496;52.468;13.342;2022-09-09T03:26:11;9.97;;;8.97;;
4961;SDS011;2496;52.468;13.342;2022-09-09T03:28:40;9.13;;;7.80;;
4961;SDS011;2496;52.468;13.342;2022-09-09T03:31:07;7.80;;;7.00;;
4961;SDS011;2496;52.468;13.342;2022-09-09T03:33:35;9.53;;;7.67;;
4961;SDS011;2496;52.468;13.342;2022-09-09T03:36:04;7.87;;;7.00;;
4961;SDS011;2496;52.468;13.342;2022-09-09T03:38:32;8.03;;;7.23;;
4961;SDS011;2496;52.468;13.342;2022-09-09T03:40:59;8.57;;;6.97;;
4961;SDS011;2496;52.468;13.342;2022-09-09T03:43:27;8.63;;;7.20;;
4961;SDS011;2496;52.468;13.342;2022-09-09T03:45:55;11.33;;;7.97;;
4961;SDS011;2496;52.468;13.342;2022-09-09T03:48:23;10.40;;;6.80;;
4961;SDS011;2496;52.468;13.342;2022-09-09T03:50:51;7.70;;;6.90;;
4961;SDS011;2496;52.468;13.342;2022-09-09T03:53:21;7.70;;;6.90;;
4961;SDS011;2496;52.468;13.342;2022-09-09T03:55:50;9.20;;;6.90;;
4961;SDS011;2496;52.468;13.342;2022-09-09T03:58:20;7.00;;;6.30;;
4961;SDS011;2496;52.468;13.342;2022-09-09T04:00:58;9.50;;;7.23;;
4961;SDS011;2496;52.468;13.342;2022-09-09T04:03:26;8.73;;;6.07;;
4961;SDS011;2496;52.468;13.342;2022-09-09T04:05:54;8.80;;;6.27;;
4961;SDS011;2496;52.468;13.342;2022-09-09T04:08:23;6.93;;;6.07;;
4961;SDS011;2496;52.468;13.342;2022-09-09T04:10:51;7.10;;;5.40;;
4961;SDS011;2496;52.468;13.342;2022-09-09T04:13:22;11.03;;;6.97;;
4961;SDS011;2496;52.468;13.342;2022-09-09T04:15:50;7.13;;;6.00;;
4961;SDS011;2496;52.468;13.342;2022-09-09T04:18:18;7.67;;;6.13;;
4961;SDS011;2496;52.468;13.342;2022-09-09T04:20:45;7.40;;;6.57;;
4961;SDS011;2496;52.468;13.342;2022-09-09T04:23:13;7.53;;;6.73;;
4961;SDS011;2496;52.468;13.342;2022-09-09T04:25:44;9.83;;;7.03;;
4961;SDS011;2496;52.468;13.342;2022-09-09T04:28:12;8.87;;;6.00;;
4961;SDS011;2496;52.468;13.342;2022-09-09T04:30:40;13.10;;;7.13;;
4961;SDS011;2496;52.468;13.342;2022-09-09T04:33:07;8.10;;;6.93;;
4961;SDS011;2496;52.468;13.342;2022-09-09T04:35:36;8.20;;;6.73;;
4961;SDS011;2496;52.468;13.342;2022-09-09T04:38:03;12.87;;;7.50;;
4961;SDS011;2496;52.468;13.342;2022-09-09T04:40:32;9.40;;;7.00;;
4961;SDS011;2496;52.468;13.342;2022-09-09T04:43:01;11.17;;;7.10;;
4961;SDS011;2496;52.468;13.342;2022-09-09T04:45:29;6.60;;;5.90;;
4961;SDS011;2496;52.468;13.342;2022-09-09T04:47:57;8.93;;;6.93;;
4961;SDS011;2496;52.468;13.342;2022-09-09T04:50:24;12.13;;;6.27;;
4961;SDS011;2496;52.468;13.342;2022-09-09T04:52:51;8.13;;;6.43;;
4961;SDS011;2496;52.468;13.342;2022-09-09T04:55:18;8.90;;;7.10;;
4961;SDS011;2496;52.468;13.342;2022-09-09T04:57:45;10.93;;;7.57;;
4961;SDS011;2496;52.468;13.342;2022-09-09T05:00:15;8.50;;;6.67;;
4961;SDS011;2496;52.468;13.342;2022-09-09T05:02:42;9.43;;;7.10;;
4961;SDS011;2496;52.468;13.342;2022-09-09T05:05:09;7.30;;;5.87;;
4961;SDS011;2496;52.468;13.342;2022-09-09T05:07:37;18.43;;;7.00;;
4961;SDS011;2496;52.468;13.342;2022-09-09T05:10:04;11.30;;;7.47;;
4961;SDS011;2496;52.468;13.342;2022-09-09T05:12:31;11.70;;;6.00;;
4961;SDS011;2496;52.468;13.342;2022-09-09T05:14:58;8.27;;;6.23;;
4961;SDS011;2496;52.468;13.342;2022-09-09T05:17:26;6.17;;;5.17;;
4961;SDS011;2496;52.468;13.342;2022-09-09T05:19:53;10.50;;;8.00;;
4961;SDS011;2496;52.468;13.342;2022-09-09T05:22:20;10.20;;;7.50;;
4961;SDS011;2496;52.468;13.342;2022-09-09T05:24:48;7.90;;;6.03;;
4961;SDS011;2496;52.468;13.342;2022-09-09T05:27:15;8.80;;;6.37;;
4961;SDS011;2496;52.468;13.342;2022-09-09T05:29:44;7.47;;;5.50;;
4961;SDS011;2496;52.468;13.342;2022-09-09T05:32:11;7.93;;;6.10;;
4961;SDS011;2496;52.468;13.342;2022-09-09T05:34:40;8.20;;;6.57;;
4961;SDS011;2496;52.468;13.342;2022-09-09T05:37:06;6.33;;;5.37;;
4961;SDS011;2496;52.468;13.342;2022-09-09T05:39:33;6.90;;;5.30;;
4961;SDS011;2496;52.468;13.342;2022-09-09T05:42:02;11.13;;;6.33;;
4961;SDS011;2496;52.468;13.342;2022-09-09T05:44:29;5.90;;;5.30;;
4961;SDS011;2496;52.468;13.342;2022-09-09T05:46:55;10.53;;;6.00;;
4961;SDS011;2496;52.468;13.342;2022-09-09T05:49:23;6.50;;;5.80;;
4961;SDS011;2496;52.468;13.342;2022-09-09T05:51:51;6.23;;;5.63;;
4961;SDS011;2496;52.468;13.342;2022-09-09T05:54:18;16.03;;;5.10;;
4961;SDS011;2496;52.468;13.342;2022-09-09T05:56:45;7.57;;;6.50;;
4961;SDS011;2496;52.468;13.342;2022-09-09T05:59:14;7.57;;;5.20;;
4961;SDS011;2496;52.468;13.342;2022-09-09T06:01:41;6.30;;;5.70;;
4961;SDS011;2496;52.468;13.342;2022-09-09T06:04:08;6.03;;;5.30;;
4961;SDS011;2496;52.468;13.342;2022-09-09T06:06:35;6.10;;;5.13;;
4961;SDS011;2496;52.468;13.342;2022-09-09T06:09:06;9.37;;;5.50;;
4961;SDS011;2496;52.468;13.342;2022-09-09T06:11:35;7.80;;;5.30;;
4961;SDS011;2496;52.468;13.342;2022-09-09T06:14:04;10.83;;;5.00;;
4961;SDS011;2496;52.468;13.342;2022-09-09T06:16:32;9.67;;;6.10;;
4961;SDS011;2496;52.468;13.342;2022-09-09T06:18:59;14.80;;;4.97;;
4961;SDS011;2496;52.468;13.342;2022-09-09T06:21:28;11.00;;;5.73;;
4961;SDS011;2496;52.468;13.342;2022-09-09T06:23:58;5.63;;;5.00;;
4961;SDS011;2496;52.468;13.342;2022-09-09T06:26:27;7.97;;;5.30;;
4961;SDS011;2496;52.468;13.342;2022-09-09T06:28:55;6.17;;;4.57;;
4961;SDS011;2496;52.468;13.342;2022-09-09T06:31:24;8.20;;;4.73;;
4961;SDS011;2496;52.468;13.342;2022-09-09T06:33:55;7.10;;;5.00;;
4961;SDS011;2496;52.468;13.342;2022-09-09T06:36:23;11.30;;;6.17;;
4961;SDS011;2496;52.468;13.342;2022-09-09T06:38:51;6.03;;;4.30;;
4961;SDS011;2496;52.468;13.342;2022-09-09T06:41:19;9.03;;;4.33;;
4961;SDS011;2496;52.468;13.342;2022-09-09T06:43:48;8.93;;;4.90;;
4961;SDS011;2496;52.468;13.342;2022-09-09T06:46:16;7.10;;;4.70;;
4961;SDS011;2496;52.468;13.342;2022-09-09T06:48:44;7.40;;;4.37;;
4961;SDS011;2496;52.468;13.342;2022-09-09T06:51:13;6.00;;;4.17;;
4961;SDS011;2496;52.468;13.342;2022-09-09T06:53:41;5.53;;;4.20;;
4961;SDS011;2496;52.468;13.342;2022-09-09T06:56:17;9.13;;;4.73;;
4961;SDS011;2496;52.468;13.342;2022-09-09T06:58:47;5.97;;;3.60;;
4961;SDS011;2496;52.468;13.342;2022-09-09T07:01:17;4.90;;;3.70;;
4961;SDS011;2496;52.468;13.342;2022-09-09T07:03:46;11.33;;;4.60;;
4961;SDS011;2496;52.468;13.342;2022-09-09T07:06:15;7.10;;;4.93;;
4961;SDS011;2496;52.468;13.342;2022-09-09T07:08:44;5.30;;;3.80;;
4961;SDS011;2496;52.468;13.342;2022-09-09T07:11:15;6.50;;;5.10;;
4961;SDS011;2496;52.468;13.342;2022-09-09T07:13:42;7.90;;;3.80;;
4961;SDS011;2496;52.468;13.342;2022-09-09T07:16:12;10.40;;;3.73;;
4961;SDS011;2496;52.468;13.342;2022-09-09T07:18:39;8.93;;;4.03;;
4961;SDS011;2496;52.468;13.342;2022-09-09T07:21:07;5.80;;;3.60;;
4961;SDS011;2496;52.468;13.342;2022-09-09T07:23:35;5.20;;;3.77;;
4961;SDS011;2496;52.468;13.342;2022-09-09T07:26:02;3.33;;;3.00;;
4961;SDS011;2496;52.468;13.342;2022-09-09T07:28:29;11.23;;;3.43;;
4961;SDS011;2496;52.468;13.342;2022-09-09T07:30:56;6.23;;;3.50;;
4961;SDS011;2496;52.468;13.342;2022-09-09T07:33:25;5.53;;;3.80;;
4961;SDS011;2496;52.468;13.342;2022-09-09T07:36:01;6.13;;;2.73;;
4961;SDS011;2496;52.468;13.342;2022-09-09T07:38:29;7.40;;;3.20;;
4961;SDS011;2496;52.468;13.342;2022-09-09T07:41:02;6.67;;;3.23;;
4961;SDS011;2496;52.468;13.342;2022-09-09T07:43:30;10.77;;;3.70;;
4961;SDS011;2496;52.468;13.342;2022-09-09T07:45:58;5.10;;;3.27;;
4961;SDS011;2496;52.468;13.342;2022-09-09T07:48:27;6.27;;;3.20;;
4961;SDS011;2496;52.468;13.342;2022-09-09T07:51:02;11.60;;;3.50;;
4961;SDS011;2496;52.468;13.342;2022-09-09T07:53:32;4.67;;;3.13;;
4961;SDS011;2496;52.468;13.342;2022-09-09T07:56:02;8.63;;;3.17;;
4961;SDS011;2496;52.468;13.342;2022-09-09T07:58:29;6.10;;;2.73;;
4961;SDS011;2496;52.468;13.342;2022-09-09T08:00:56;4.77;;;2.80;;
4961;SDS011;2496;52.468;13.342;2022-09-09T08:03:23;6.87;;;2.70;;
4961;SDS011;2496;52.468;13.342;2022-09-09T08:05:51;3.30;;;2.43;;
4961;SDS011;2496;52.468;13.342;2022-09-09T08:08:18;3.30;;;2.10;;
4961;SDS011;2496;52.468;13.342;2022-09-09T08:10:45;4.87;;;3.20;;
4961;SDS011;2496;52.468;13.342;2022-09-09T08:13:12;8.97;;;2.90;;
4961;SDS011;2496;52.468;13.342;2022-09-09T08:15:39;4.23;;;2.10;;
4961;SDS011;2496;52.468;13.342;2022-09-09T08:18:09;7.23;;;2.67;;
4961;SDS011;2496;52.468;13.342;2022-09-09T08:20:36;7.37;;;2.70;;
4961;SDS011;2496;52.468;13.342;2022-09-09T08:23:04;8.20;;;2.90;;
4961;SDS011;2496;52.468;13.342;2022-09-09T08:25:32;6.07;;;2.43;;
4961;SDS011;2496;52.468;13.342;2022-09-09T08:27:59;6.23;;;2.83;;
4961;SDS011;2496;52.468;13.342;2022-09-09T08:30:26;5.63;;;2.70;;
4961;SDS011;2496;52.468;13.342;2022-09-09T08:32:53;5.57;;;1.90;;
4961;SDS011;2496;52.468;13.342;2022-09-09T08:35:20;3.37;;;2.80;;
4961;SDS011;2496;52.468;13.342;2022-09-09T08:37:47;6.60;;;3.10;;
4961;SDS011;2496;52.468;13.342;2022-09-09T08:40:18;6.10;;;2.60;;
4961;SDS011;2496;52.468;13.342;2022-09-09T08:42:51;3.43;;;2.17;;
4961;SDS011;2496;52.468;13.342;2022-09-09T08:45:24;5.10;;;2.50;;
4961;SDS011;2496;52.468;13.342;2022-09-09T08:48:03;8.97;;;3.27;;
4961;SDS011;2496;52.468;13.342;2022-09-09T08:50:43;9.70;;;2.80;;
4961;SDS011;2496;52.468;13.342;2022-09-09T08:53:14;3.33;;;2.50;;
4961;SDS011;2496;52.468;13.342;2022-09-09T08:55:47;3.77;;;2.00;;
4961;SDS011;2496;52.468;13.342;2022-09-09T08:58:16;6.70;;;2.10;;
4961;SDS011;2496;52.468;13.342;2022-09-09T09:00:55;7.30;;;2.40;;
4961;SDS011;2496;52.468;13.342;2022-09-09T09:03:34;9.40;;;3.03;;
4961;SDS011;2496;52.468;13.342;2022-09-09T09:06:14;11.13;;;3.30;;
4961;SDS011;2496;52.468;13.342;2022-09-09T09:08:52;5.33;;;2.33;;
4961;SDS011;2496;52.468;13.342;2022-09-09T09:11:28;9.20;;;2.73;;
4961;SDS011;2496;52.468;13.342;2022-09-09T09:14:02;5.07;;;2.20;;
4961;SDS011;2496;52.468;13.342;2022-09-09T09:16:38;3.47;;;1.93;;
4961;SDS011;2496;52.468;13.342;2022-09-09T09:19:08;4.90;;;2.53;;
4961;SDS011;2496;52.468;13.342;2022-09-09T09:21:41;5.40;;;2.67;;
4961;SDS011;2496;52.468;13.342;2022-09-09T09:24:13;4.27;;;2.00;;
4961;SDS011;2496;52.468;13.342;2022-09-09T09:26:45;4.80;;;2.23;;
4961;SDS011;2496;52.468;13.342;2022-09-09T09:29:13;2.77;;;1.70;;
4961;SDS011;2496;52.468;13.342;2022-09-09T09:31:42;3.10;;;1.60;;
4961;SDS011;2496;52.468;13.342;2022-09-09T09:34:11;9.07;;;2.57;;
4961;SDS011;2496;52.468;13.342;2022-09-09T09:36:39;4.57;;;2.43;;
4961;SDS011;2496;52.468;13.342;2022-09-09T09:39:07;7.63;;;2.20;;
4961;SDS011;2496;52.468;13.342;2022-09-09T09:41:35;5.20;;;2.00;;
4961;SDS011;2496;52.468;13.342;2022-09-09T09:44:06;6.87;;;2.30;;
4961;SDS011;2496;52.468;13.342;2022-09-09T09:46:51;3.90;;;2.07;;
4961;SDS011;2496;52.468;13.342;2022-09-09T09:49:19;4.30;;;1.90;;
4961;SDS011;2496;52.468;13.342;2022-09-09T09:51:45;3.57;;;2.20;;
4961;SDS011;2496;52.468;13.342;2022-09-09T09:54:15;5.93;;;2.37;;
4961;SDS011;2496;52.468;13.342;2022-09-09T09:56:46;10.73;;;2.87;;
4961;SDS011;2496;52.468;13.342;2022-09-09T09:59:33;6.00;;;2.57;;
4961;SDS011;2496;52.468;13.342;2022-09-09T10:02:14;7.60;;;2.50;;
4961;SDS011;2496;52.468;13.342;2022-09-09T10:04:43;7.03;;;2.50;;
4961;SDS011;2496;52.468;13.342;2022-09-09T10:07:11;4.97;;;2.30;;
4961;SDS011;2496;52.468;13.342;2022-09-09T10:09:39;8.30;;;1.93;;
4961;SDS011;2496;52.468;13.342;2022-09-09T10:12:08;4.93;;;2.10;;
4961;SDS011;2496;52.468;13.342;2022-09-09T10:14:47;2.40;;;1.97;;
4961;SDS011;2496;52.468;13.342;2022-09-09T10:17:19;4.17;;;2.10;;
4961;SDS011;2496;52.468;13.342;2022-09-09T10:19:56;3.10;;;1.70;;
4961;SDS011;2496;52.468;13.342;2022-09-09T10:22:39;5.30;;;1.93;;
4961;SDS011;2496;52.468;13.342;2022-09-09T10:25:21;4.50;;;1.93;;
4961;SDS011;2496;52.468;13.342;2022-09-09T10:30:58;11.10;;;2.30;;
4961;SDS011;2496;52.468;13.342;2022-09-09T10:33:37;9.17;;;3.57;;
4961;SDS011;2496;52.468;13.342;2022-09-09T10:36:15;4.33;;;1.60;;
4961;SDS011;2496;52.468;13.342;2022-09-09T10:38:46;9.13;;;2.00;;
4961;SDS011;2496;52.468;13.342;2022-09-09T10:41:16;4.53;;;2.00;;
4961;SDS011;2496;52.468;13.342;2022-09-09T10:44:05;3.43;;;1.73;;
4961;SDS011;2496;52.468;13.342;2022-09-09T10:46:48;6.87;;;2.10;;
4961;SDS011;2496;52.468;13.342;2022-09-09T10:49:37;3.40;;;1.80;;
4961;SDS011;2496;52.468;13.342;2022-09-09T10:52:23;7.13;;;1.80;;
4961;SDS011;2496;52.468;13.342;2022-09-09T10:54:56;4.40;;;2.77;;
4961;SDS011;2496;52.468;13.342;2022-09-09T10:57:27;6.57;;;2.00;;
4961;SDS011;2496;52.468;13.342;2022-09-09T11:00:02;4.57;;;1.97;;
4961;SDS011;2496;52.468;13.342;2022-09-09T11:02:34;9.20;;;2.73;;
4961;SDS011;2496;52.468;13.342;2022-09-09T11:05:03;6.67;;;2.70;;
4961;SDS011;2496;52.468;13.342;2022-09-09T11:07:34;4.60;;;2.00;;
4961;SDS011;2496;52.468;13.342;2022-09-09T11:10:11;4.43;;;2.63;;
4961;SDS011;2496;52.468;13.342;2022-09-09T11:12:44;5.37;;;1.97;;
4961;SDS011;2496;52.468;13.342;2022-09-09T11:15:14;3.97;;;2.00;;
4961;SDS011;2496;52.468;13.342;2022-09-09T11:17:46;3.63;;;1.90;;
4961;SDS011;2496;52.468;13.342;2022-09-09T11:20:16;2.80;;;1.90;;
4961;SDS011;2496;52.468;13.342;2022-09-09T11:22:44;3.33;;;1.87;;
4961;SDS011;2496;52.468;13.342;2022-09-09T11:25:16;3.47;;;1.80;;
4961;SDS011;2496;52.468;13.342;2022-09-09T11:27:51;4.53;;;1.70;;
4961;SDS011;2496;52.468;13.342;2022-09-09T11:30:29;4.43;;;2.33;;
4961;SDS011;2496;52.468;13.342;2022-09-09T11:33:16;3.63;;;1.77;;
4961;SDS011;2496;52.468;13.342;2022-09-09T11:36:01;4.87;;;1.90;;
4961;SDS011;2496;52.468;13.342;2022-09-09T11:38:40;5.63;;;1.90;;
4961;SDS011;2496;52.468;13.342;2022-09-09T11:41:11;4.30;;;1.77;;
4961;SDS011;2496;52.468;13.342;2022-09-09T11:43:40;4.27;;;1.70;;
4961;SDS011;2496;52.468;13.342;2022-09-09T11:46:09;1.97;;;1.30;;
4961;SDS011;2496;52.468;13.342;2022-09-09T11:48:40;4.90;;;1.70;;
4961;SDS011;2496;52.468;13.342;2022-09-09T11:51:11;2.90;;;1.40;;
4961;SDS011;2496;52.468;13.342;2022-09-09T11:53:50;3.70;;;2.17;;
4961;SDS011;2496;52.468;13.342;2022-09-09T11:56:24;6.70;;;1.90;;
4961;SDS011;2496;52.468;13.342;2022-09-09T11:58:54;2.07;;;1.40;;
4961;SDS011;2496;52.468;13.342;2022-09-09T12:01:30;4.03;;;1.83;;
4961;SDS011;2496;52.468;13.342;2022-09-09T12:04:12;5.00;;;1.83;;
4961;SDS011;2496;52.468;13.342;2022-09-09T12:06:45;4.17;;;1.80;;
4961;SDS011;2496;52.468;13.342;2022-09-09T12:09:21;2.90;;;2.03;;
4961;SDS011;2496;52.468;13.342;2022-09-09T12:11:53;4.83;;;1.53;;
4961;SDS011;2496;52.468;13.342;2022-09-09T12:14:34;5.93;;;2.47;;
4961;SDS011;2496;52.468;13.342;2022-09-09T12:17:09;5.20;;;3.13;;
4961;SDS011;2496;52.468;13.342;2022-09-09T12:19:45;1.90;;;1.30;;
4961;SDS011;2496;52.468;13.342;2022-09-09T12:22:16;4.80;;;1.83;;
4961;SDS011;2496;52.468;13.342;2022-09-09T12:24:51;3.97;;;1.33;;
4961;SDS011;2496;52.468;13.342;2022-09-09T12:27:23;3.43;;;1.70;;
4961;SDS011;2496;52.468;13.342;2022-09-09T12:29:55;5.07;;;1.37;;
4961;SDS011;2496;52.468;13.342;2022-09-09T12:32:27;4.23;;;1.57;;
4961;SDS011;2496;52.468;13.342;2022-09-09T12:34:57;5.20;;;1.87;;
4961;SDS011;2496;52.468;13.342;2022-09-09T12:37:27;3.30;;;1.60;;
4961;SDS011;2496;52.468;13.342;2022-09-09T12:39:59;23.90;;;1.97;;
4961;SDS011;2496;52.468;13.342;2022-09-09T12:42:28;3.30;;;1.50;;
4961;SDS011;2496;52.468;13.342;2022-09-09T12:44:58;1.80;;;1.37;;
4961;SDS011;2496;52.468;13.342;2022-09-09T12:47:30;3.37;;;1.60;;
4961;SDS011;2496;52.468;13.342;2022-09-09T12:50:11;3.40;;;1.30;;
4961;SDS011;2496;52.468;13.342;2022-09-09T12:52:42;5.33;;;1.30;;
4961;SDS011;2496;52.468;13.342;2022-09-09T12:55:14;6.23;;;1.47;;
4961;SDS011;2496;52.468;13.342;2022-09-09T12:57:44;7.10;;;4.30;;
4961;SDS011;2496;52.468;13.342;2022-09-09T13:00:13;6.13;;;1.70;;
4961;SDS011;2496;52.468;13.342;2022-09-09T13:02:46;1.77;;;1.27;;
4961;SDS011;2496;52.468;13.342;2022-09-09T13:05:17;3.10;;;1.57;;
4961;SDS011;2496;52.468;13.342;2022-09-09T13:07:46;5.43;;;2.00;;
4961;SDS011;2496;52.468;13.342;2022-09-09T13:10:14;8.10;;;2.93;;
4961;SDS011;2496;52.468;13.342;2022-09-09T13:12:46;5.17;;;2.60;;
4961;SDS011;2496;52.468;13.342;2022-09-09T13:15:16;7.00;;;2.63;;
4961;SDS011;2496;52.468;13.342;2022-09-09T13:17:55;13.67;;;1.70;;
4961;SDS011;2496;52.468;13.342;2022-09-09T13:20:25;5.03;;;3.13;;
4961;SDS011;2496;52.468;13.342;2022-09-09T13:22:52;6.90;;;2.20;;
4961;SDS011;2496;52.468;13.342;2022-09-09T13:25:22;4.13;;;2.13;;
4961;SDS011;2496;52.468;13.342;2022-09-09T13:27:52;5.27;;;2.80;;
4961;SDS011;2496;52.468;13.342;2022-09-09T13:30:22;2.83;;;1.40;;
4961;SDS011;2496;52.468;13.342;2022-09-09T13:33:04;3.23;;;1.70;;
4961;SDS011;2496;52.468;13.342;2022-09-09T13:35:49;5.17;;;2.83;;
4961;SDS011;2496;52.468;13.342;2022-09-09T13:38:19;7.23;;;2.03;;
4961;SDS011;2496;52.468;13.342;2022-09-09T13:40:56;3.17;;;1.87;;
4961;SDS011;2496;52.468;13.342;2022-09-09T13:43:27;3.03;;;2.00;;
4961;SDS011;2496;52.468;13.342;2022-09-09T13:45:56;4.23;;;2.07;;
4961;SDS011;2496;52.468;13.342;2022-09-09T13:48:25;6.70;;;2.90;;
4961;SDS011;2496;52.468;13.342;2022-09-09T13:50:57;4.73;;;2.33;;
4961;SDS011;2496;52.468;13.342;2022-09-09T13:53:25;15.63;;;9.17;;
4961;SDS011;2496;52.468;13.342;2022-09-09T13:55:53;4.30;;;1.67;;
4961;SDS011;2496;52.468;13.342;2022-09-09T13:58:22;6.10;;;2.93;;
4961;SDS011;2496;52.468;13.342;2022-09-09T14:00:50;6.67;;;2.10;;
4961;SDS011;2496;52.468;13.342;2022-09-09T14:03:18;2.70;;;1.63;;
4961;SDS011;2496;52.468;13.342;2022-09-09T14:05:45;3.50;;;1.50;;
4961;SDS011;2496;52.468;13.342;2022-09-09T14:08:17;3.67;;;1.50;;
4961;SDS011;2496;52.468;13.342;2022-09-09T14:10:48;5.60;;;2.10;;
4961;SDS011;2496;52.468;13.342;2022-09-09T14:13:15;4.73;;;2.10;;
4961;SDS011;2496;52.468;13.342;2022-09-09T14:15:42;2.63;;;1.40;;
4961;SDS011;2496;52.468;13.342;2022-09-09T14:18:09;3.77;;;1.20;;
4961;SDS011;2496;52.468;13.342;2022-09-09T14:20:39;3.90;;;1.83;;
4961;SDS011;2496;52.468;13.342;2022-09-09T14:23:07;2.73;;;1.53;;
4961;SDS011;2496;52.468;13.342;2022-09-09T14:25:40;3.23;;;1.63;;
4961;SDS011;2496;52.468;13.342;2022-09-09T14:28:09;5.40;;;1.70;;
4961;SDS011;2496;52.468;13.342;2022-09-09T14:30:37;4.43;;;1.73;;
4961;SDS011;2496;52.468;13.342;2022-09-09T14:33:05;4.47;;;2.17;;
4961;SDS011;2496;52.468;13.342;2022-09-09T14:35:32;2.93;;;1.30;;
4961;SDS011;2496;52.468;13.342;2022-09-09T14:37:59;13.83;;;4.97;;
4961;SDS011;2496;52.468;13.342;2022-09-09T14:40:27;4.37;;;2.40;;
4961;SDS011;2496;52.468;13.342;2022-09-09T14:42:55;3.27;;;1.60;;
4961;SDS011;2496;52.468;13.342;2022-09-09T14:45:23;5.20;;;1.60;;
4961;SDS011;2496;52.468;13.342;2022-09-09T14:47:51;8.03;;;2.10;;
4961;SDS011;2496;52.468;13.342;2022-09-09T14:50:18;4.33;;;1.50;;
4961;SDS011;2496;52.468;13.342;2022-09-09T14:52:45;3.73;;;1.90;;
4961;SDS011;2496;52.468;13.342;2022-09-09T14:55:13;6.10;;;3.30;;
4961;SDS011;2496;52.468;13.342;2022-09-09T14:57:40;4.90;;;3.03;;
4961;SDS011;2496;52.468;13.342;2022-09-09T15:00:10;5.13;;;2.27;;
4961;SDS011;2496;52.468;13.342;2022-09-09T15:02:37;3.17;;;1.47;;
4961;SDS011;2496;52.468;13.342;2022-09-09T15:05:04;3.77;;;1.50;;
4961;SDS011;2496;52.468;13.342;2022-09-09T15:07:32;7.50;;;1.80;;
4961;SDS011;2496;52.468;13.342;2022-09-09T15:09:59;6.90;;;2.50;;
4961;SDS011;2496;52.468;13.342;2022-09-09T15:12:26;4.60;;;1.60;;
4961;SDS011;2496;52.468;13.342;2022-09-09T15:14:54;4.33;;;1.60;;
4961;SDS011;2496;52.468;13.342;2022-09-09T15:17:22;10.80;;;1.80;;
4961;SDS011;2496;52.468;13.342;2022-09-09T15:19:52;3.13;;;1.40;;
4961;SDS011;2496;52.468;13.342;2022-09-09T15:22:20;5.73;;;1.40;;
4961;SDS011;2496;52.468;13.342;2022-09-09T15:24:46;5.17;;;3.50;;